sensor_id;sensor_type;location;lat;lon;timestamp;temperature;humidity
46490;DHT22;32204;49.160;8.580;2023-05-27T00:01:41;17.10;99.90
46490;DHT22;32204;49.160;8.580;2023-05-27T00:04:06;17.00;99.90
46490;DHT22;32204;49.160;8.580;2023-05-27T00:06:32;16.90;99.90
46490;DHT22;32204;49.160;8.580;2023-05-27T00:08:58;16.90;99.90
46490;DHT22;32204;49.160;8.580;2023-05-27T00:11:24;16.90;99.90
46490;DHT22;32204;49.160;8.580;2023-05-27T00:13:50;16.90;99.90
46490;DHT22;32204;49.160;8.580;2023-05-27T00:16:16;16.90;99.90
46490;DHT22;32204;49.160;8.580;2023-05-27T00:18:42;16.80;99.90
46490;DHT22;32204;49.160;8.580;2023-05-27T00:21:07;16.80;99.90
46490;DHT22;32204;49.160;8.580;2023-05-27T00:23:33;16.70;99.90
46490;DHT22;32204;49.160;8.580;2023-05-27T00:25:58;16.70;99.90
46490;DHT22;32204;49.160;8.580;2023-05-27T00:28:24;16.80;99.90
46490;DHT22;32204;49.160;8.580;2023-05-27T00:30:49;16.80;99.90
46490;DHT22;32204;49.160;8.580;2023-05-27T00:33:15;16.70;99.90
46490;DHT22;32204;49.160;8.580;2023-05-27T00:35:41;16.70;99.90
46490;DHT22;32204;49.160;8.580;2023-05-27T00:38:24;16.60;99.90
46490;DHT22;32204;49.160;8.580;2023-05-27T00:40:52;16.60;99.90
46490;DHT22;32204;49.160;8.580;2023-05-27T00:43:18;16.70;99.90
46490;DHT22;32204;49.160;8.580;2023-05-27T00:45:44;16.80;99.90
46490;DHT22;32204;49.160;8.580;2023-05-27T00:48:10;16.80;99.90
46490;DHT22;32204;49.160;8.580;2023-05-27T00:50:35;16.70;99.90
46490;DHT22;32204;49.160;8.580;2023-05-27T00:53:02;16.60;99.90
46490;DHT22;32204;49.160;8.580;2023-05-27T00:55:28;16.60;99.90
46490;DHT22;32204;49.160;8.580;2023-05-27T00:57:54;16.60;99.90
46490;DHT22;32204;49.160;8.580;2023-05-27T01:00:20;16.50;99.90
46490;DHT22;32204;49.160;8.580;2023-05-27T01:02:46;16.50;99.90
46490;DHT22;32204;49.160;8.580;2023-05-27T01:05:14;16.50;99.90
46490;DHT22;32204;49.160;8.580;2023-05-27T01:07:48;16.50;99.90
46490;DHT22;32204;49.160;8.580;2023-05-27T01:10:26;16.50;99.90
46490;DHT22;32204;49.160;8.580;2023-05-27T01:12:56;16.50;99.90
46490;DHT22;32204;49.160;8.580;2023-05-27T01:15:24;16.40;99.90
46490;DHT22;32204;49.160;8.580;2023-05-27T01:17:55;16.30;99.90
46490;DHT22;32204;49.160;8.580;2023-05-27T01:20:21;16.40;99.90
46490;DHT22;32204;49.160;8.580;2023-05-27T01:22:47;16.40;99.90
46490;DHT22;32204;49.160;8.580;2023-05-27T01:25:17;16.50;99.90
46490;DHT22;32204;49.160;8.580;2023-05-27T01:27:44;16.40;99.90
46490;DHT22;32204;49.160;8.580;2023-05-27T01:30:11;16.50;99.90
46490;DHT22;32204;49.160;8.580;2023-05-27T01:32:50;16.40;99.90
46490;DHT22;32204;49.160;8.580;2023-05-27T01:35:29;16.30;99.90
46490;DHT22;32204;49.160;8.580;2023-05-27T01:37:58;16.30;99.90
46490;DHT22;32204;49.160;8.580;2023-05-27T01:40:24;16.30;99.90
46490;DHT22;32204;49.160;8.580;2023-05-27T01:42:50;16.20;99.90
46490;DHT22;32204;49.160;8.580;2023-05-27T01:45:16;16.20;99.90
46490;DHT22;32204;49.160;8.580;2023-05-27T01:47:44;16.20;99.90
46490;DHT22;32204;49.160;8.580;2023-05-27T01:50:10;16.20;99.90
46490;DHT22;32204;49.160;8.580;2023-05-27T01:52:36;16.20;99.90
46490;DHT22;32204;49.160;8.580;2023-05-27T01:55:02;16.00;99.90
46490;DHT22;32204;49.160;8.580;2023-05-27T01:57:39;15.90;99.90
46490;DHT22;32204;49.160;8.580;2023-05-27T02:00:05;15.90;99.90
46490;DHT22;32204;49.160;8.580;2023-05-27T02:02:33;15.90;99.90
46490;DHT22;32204;49.160;8.580;2023-05-27T02:04:59;16.00;99.90
46490;DHT22;32204;49.160;8.580;2023-05-27T02:07:24;16.00;99.90
46490;DHT22;32204;49.160;8.580;2023-05-27T02:09:52;16.00;99.90
46490;DHT22;32204;49.160;8.580;2023-05-27T02:12:17;15.80;99.90
46490;DHT22;32204;49.160;8.580;2023-05-27T02:14:43;15.70;99.90
46490;DHT22;32204;49.160;8.580;2023-05-27T02:17:10;15.60;99.90
46490;DHT22;32204;49.160;8.580;2023-05-27T02:19:36;15.60;99.90
46490;DHT22;32204;49.160;8.580;2023-05-27T02:22:02;15.40;99.90
46490;DHT22;32204;49.160;8.580;2023-05-27T02:24:27;15.40;1.00
46490;DHT22;32204;49.160;8.580;2023-05-27T02:26:53;15.50;1.00
46490;DHT22;32204;49.160;8.580;2023-05-27T02:29:19;15.50;1.00
46490;DHT22;32204;49.160;8.580;2023-05-27T02:31:44;15.60;1.00
46490;DHT22;32204;49.160;8.580;2023-05-27T02:34:10;15.50;1.00
46490;DHT22;32204;49.160;8.580;2023-05-27T02:36:35;15.50;99.90
46490;DHT22;32204;49.160;8.580;2023-05-27T02:39:01;15.40;99.90
46490;DHT22;32204;49.160;8.580;2023-05-27T02:41:26;15.40;1.00
46490;DHT22;32204;49.160;8.580;2023-05-27T02:43:52;15.40;99.90
46490;DHT22;32204;49.160;8.580;2023-05-27T02:46:17;15.30;99.90
46490;DHT22;32204;49.160;8.580;2023-05-27T02:48:43;15.30;99.90
46490;DHT22;32204;49.160;8.580;2023-05-27T02:51:18;15.40;1.00
46490;DHT22;32204;49.160;8.580;2023-05-27T02:53:50;15.30;1.00
46490;DHT22;32204;49.160;8.580;2023-05-27T02:56:16;15.30;1.00
46490;DHT22;32204;49.160;8.580;2023-05-27T02:58:42;15.30;99.90
46490;DHT22;32204;49.160;8.580;2023-05-27T03:01:07;15.20;99.90
46490;DHT22;32204;49.160;8.580;2023-05-27T03:03:33;15.20;99.90
46490;DHT22;32204;49.160;8.580;2023-05-27T03:05:59;15.20;99.90
46490;DHT22;32204;49.160;8.580;2023-05-27T03:08:24;15.20;99.90
46490;DHT22;32204;49.160;8.580;2023-05-27T03:10:50;15.10;99.90
46490;DHT22;32204;49.160;8.580;2023-05-27T03:13:16;15.00;99.90
46490;DHT22;32204;49.160;8.580;2023-05-27T03:15:42;15.00;99.90
46490;DHT22;32204;49.160;8.580;2023-05-27T03:18:07;15.00;99.90
46490;DHT22;32204;49.160;8.580;2023-05-27T03:20:33;15.00;99.90
46490;DHT22;32204;49.160;8.580;2023-05-27T03:22:59;15.00;99.90
46490;DHT22;32204;49.160;8.580;2023-05-27T03:25:25;15.00;99.90
46490;DHT22;32204;49.160;8.580;2023-05-27T03:27:50;15.00;99.90
46490;DHT22;32204;49.160;8.580;2023-05-27T03:30:16;14.90;99.90
46490;DHT22;32204;49.160;8.580;2023-05-27T03:32:42;14.80;99.90
46490;DHT22;32204;49.160;8.580;2023-05-27T03:35:07;14.80;99.90
46490;DHT22;32204;49.160;8.580;2023-05-27T03:37:33;14.80;99.90
46490;DHT22;32204;49.160;8.580;2023-05-27T03:39:59;14.70;99.90
46490;DHT22;32204;49.160;8.580;2023-05-27T03:42:24;14.60;99.90
46490;DHT22;32204;49.160;8.580;2023-05-27T03:44:50;14.60;99.90
46490;DHT22;32204;49.160;8.580;2023-05-27T03:47:16;14.50;99.90
46490;DHT22;32204;49.160;8.580;2023-05-27T03:49:46;14.60;99.90
46490;DHT22;32204;49.160;8.580;2023-05-27T03:52:11;14.70;99.90
46490;DHT22;32204;49.160;8.580;2023-05-27T03:54:37;14.70;99.90
46490;DHT22;32204;49.160;8.580;2023-05-27T03:57:03;14.80;99.90
46490;DHT22;32204;49.160;8.580;2023-05-27T03:59:29;14.80;99.90
46490;DHT22;32204;49.160;8.580;2023-05-27T04:01:54;14.90;99.90
46490;DHT22;32204;49.160;8.580;2023-05-27T04:04:20;14.90;99.90
46490;DHT22;32204;49.160;8.580;2023-05-27T04:06:46;15.00;99.90
46490;DHT22;32204;49.160;8.580;2023-05-27T04:09:11;15.10;99.90
46490;DHT22;32204;49.160;8.580;2023-05-27T04:11:37;15.10;99.90
46490;DHT22;32204;49.160;8.580;2023-05-27T04:14:02;15.10;99.90
46490;DHT22;32204;49.160;8.580;2023-05-27T04:16:30;15.20;99.90
46490;DHT22;32204;49.160;8.580;2023-05-27T04:18:56;15.30;99.90
46490;DHT22;32204;49.160;8.580;2023-05-27T04:21:22;15.30;99.90
46490;DHT22;32204;49.160;8.580;2023-05-27T04:23:48;15.30;99.90
46490;DHT22;32204;49.160;8.580;2023-05-27T04:26:13;15.30;99.90
46490;DHT22;32204;49.160;8.580;2023-05-27T04:28:40;15.50;99.90
46490;DHT22;32204;49.160;8.580;2023-05-27T04:31:06;15.40;99.90
46490;DHT22;32204;49.160;8.580;2023-05-27T04:33:40;15.10;99.90
46490;DHT22;32204;49.160;8.580;2023-05-27T04:36:06;15.20;99.90
46490;DHT22;32204;49.160;8.580;2023-05-27T04:38:32;15.20;99.90
46490;DHT22;32204;49.160;8.580;2023-05-27T04:40:58;15.20;99.90
46490;DHT22;32204;49.160;8.580;2023-05-27T04:43:24;15.20;99.90
46490;DHT22;32204;49.160;8.580;2023-05-27T04:45:52;15.10;99.90
46490;DHT22;32204;49.160;8.580;2023-05-27T04:48:18;15.30;99.90
46490;DHT22;32204;49.160;8.580;2023-05-27T04:50:43;15.60;99.90
46490;DHT22;32204;49.160;8.580;2023-05-27T04:53:09;16.10;99.90
46490;DHT22;32204;49.160;8.580;2023-05-27T04:55:35;16.60;99.90
46490;DHT22;32204;49.160;8.580;2023-05-27T04:58:01;17.00;99.90
46490;DHT22;32204;49.160;8.580;2023-05-27T05:00:29;17.40;99.90
46490;DHT22;32204;49.160;8.580;2023-05-27T05:03:07;17.70;99.90
46490;DHT22;32204;49.160;8.580;2023-05-27T05:05:33;18.10;99.90
46490;DHT22;32204;49.160;8.580;2023-05-27T05:07:59;18.50;99.90
46490;DHT22;32204;49.160;8.580;2023-05-27T05:10:25;18.50;99.90
46490;DHT22;32204;49.160;8.580;2023-05-27T05:12:51;18.80;99.90
46490;DHT22;32204;49.160;8.580;2023-05-27T05:15:17;18.80;99.90
46490;DHT22;32204;49.160;8.580;2023-05-27T05:17:43;18.70;99.90
46490;DHT22;32204;49.160;8.580;2023-05-27T05:20:09;18.80;99.90
46490;DHT22;32204;49.160;8.580;2023-05-27T05:22:35;18.80;99.90
46490;DHT22;32204;49.160;8.580;2023-05-27T05:25:01;19.10;99.90
46490;DHT22;32204;49.160;8.580;2023-05-27T05:27:27;18.90;99.90
46490;DHT22;32204;49.160;8.580;2023-05-27T05:29:53;18.90;99.90
46490;DHT22;32204;49.160;8.580;2023-05-27T05:32:19;18.90;99.90
46490;DHT22;32204;49.160;8.580;2023-05-27T05:34:45;18.80;99.90
46490;DHT22;32204;49.160;8.580;2023-05-27T05:37:10;18.80;99.90
46490;DHT22;32204;49.160;8.580;2023-05-27T05:39:37;19.00;99.90
46490;DHT22;32204;49.160;8.580;2023-05-27T05:42:03;19.40;99.90
46490;DHT22;32204;49.160;8.580;2023-05-27T05:44:29;19.50;99.90
46490;DHT22;32204;49.160;8.580;2023-05-27T05:46:55;19.60;99.90
46490;DHT22;32204;49.160;8.580;2023-05-27T05:49:21;19.70;99.90
46490;DHT22;32204;49.160;8.580;2023-05-27T05:51:47;19.70;99.90
46490;DHT22;32204;49.160;8.580;2023-05-27T05:54:13;19.80;99.90
46490;DHT22;32204;49.160;8.580;2023-05-27T05:56:38;20.10;99.90
46490;DHT22;32204;49.160;8.580;2023-05-27T05:59:04;20.70;99.90
46490;DHT22;32204;49.160;8.580;2023-05-27T06:01:31;21.00;99.90
46490;DHT22;32204;49.160;8.580;2023-05-27T06:03:56;21.00;99.90
46490;DHT22;32204;49.160;8.580;2023-05-27T06:06:30;21.10;99.90
46490;DHT22;32204;49.160;8.580;2023-05-27T06:08:55;20.90;99.90
46490;DHT22;32204;49.160;8.580;2023-05-27T06:11:21;21.10;99.90
46490;DHT22;32204;49.160;8.580;2023-05-27T06:13:47;21.30;99.90
46490;DHT22;32204;49.160;8.580;2023-05-27T06:16:13;21.30;99.90
46490;DHT22;32204;49.160;8.580;2023-05-27T06:18:38;21.30;99.90
46490;DHT22;32204;49.160;8.580;2023-05-27T06:21:04;21.30;99.90
46490;DHT22;32204;49.160;8.580;2023-05-27T06:23:29;21.30;99.90
46490;DHT22;32204;49.160;8.580;2023-05-27T06:25:55;21.90;99.90
46490;DHT22;32204;49.160;8.580;2023-05-27T06:28:21;21.90;99.90
46490;DHT22;32204;49.160;8.580;2023-05-27T06:30:47;21.50;99.90
46490;DHT22;32204;49.160;8.580;2023-05-27T06:33:12;21.40;99.30
46490;DHT22;32204;49.160;8.580;2023-05-27T06:35:38;21.20;99.30
46490;DHT22;32204;49.160;8.580;2023-05-27T06:38:05;21.30;98.60
46490;DHT22;32204;49.160;8.580;2023-05-27T06:40:30;21.70;99.80
46490;DHT22;32204;49.160;8.580;2023-05-27T06:42:56;21.60;96.00
46490;DHT22;32204;49.160;8.580;2023-05-27T06:45:22;21.40;95.90
46490;DHT22;32204;49.160;8.580;2023-05-27T06:47:47;20.60;99.90
46490;DHT22;32204;49.160;8.580;2023-05-27T06:50:13;20.60;98.80
46490;DHT22;32204;49.160;8.580;2023-05-27T06:52:39;20.20;99.90
46490;DHT22;32204;49.160;8.580;2023-05-27T06:55:04;19.70;99.90
46490;DHT22;32204;49.160;8.580;2023-05-27T06:57:30;19.50;99.90
46490;DHT22;32204;49.160;8.580;2023-05-27T07:00:11;19.20;99.90
46490;DHT22;32204;49.160;8.580;2023-05-27T07:02:40;18.90;99.90
46490;DHT22;32204;49.160;8.580;2023-05-27T07:05:05;18.40;99.90
46490;DHT22;32204;49.160;8.580;2023-05-27T07:07:31;18.10;99.90
46490;DHT22;32204;49.160;8.580;2023-05-27T07:09:57;18.20;99.90
46490;DHT22;32204;49.160;8.580;2023-05-27T07:12:22;18.30;99.90
46490;DHT22;32204;49.160;8.580;2023-05-27T07:14:49;18.20;99.90
46490;DHT22;32204;49.160;8.580;2023-05-27T07:17:14;18.10;99.90
46490;DHT22;32204;49.160;8.580;2023-05-27T07:19:40;18.30;99.90
46490;DHT22;32204;49.160;8.580;2023-05-27T07:22:05;18.50;99.90
46490;DHT22;32204;49.160;8.580;2023-05-27T07:24:32;18.50;99.90
46490;DHT22;32204;49.160;8.580;2023-05-27T07:26:57;18.60;99.90
46490;DHT22;32204;49.160;8.580;2023-05-27T07:29:23;18.60;99.90
46490;DHT22;32204;49.160;8.580;2023-05-27T07:31:48;18.40;99.90
46490;DHT22;32204;49.160;8.580;2023-05-27T07:34:14;18.50;99.90
46490;DHT22;32204;49.160;8.580;2023-05-27T07:36:40;18.60;99.90
46490;DHT22;32204;49.160;8.580;2023-05-27T07:39:05;18.50;99.90
46490;DHT22;32204;49.160;8.580;2023-05-27T07:41:31;18.60;99.90
46490;DHT22;32204;49.160;8.580;2023-05-27T07:44:01;18.50;99.90
46490;DHT22;32204;49.160;8.580;2023-05-27T07:46:30;18.40;99.90
46490;DHT22;32204;49.160;8.580;2023-05-27T07:48:56;18.50;99.90
46490;DHT22;32204;49.160;8.580;2023-05-27T07:51:21;18.70;99.90
46490;DHT22;32204;49.160;8.580;2023-05-27T07:53:47;18.70;99.90
46490;DHT22;32204;49.160;8.580;2023-05-27T07:56:13;18.90;99.90
46490;DHT22;32204;49.160;8.580;2023-05-27T07:58:39;18.80;99.90
46490;DHT22;32204;49.160;8.580;2023-05-27T08:01:07;19.00;99.90
46490;DHT22;32204;49.160;8.580;2023-05-27T08:03:33;19.00;99.90
46490;DHT22;32204;49.160;8.580;2023-05-27T08:05:58;19.10;99.90
46490;DHT22;32204;49.160;8.580;2023-05-27T08:08:24;19.20;99.90
46490;DHT22;32204;49.160;8.580;2023-05-27T08:10:50;19.00;99.90
46490;DHT22;32204;49.160;8.580;2023-05-27T08:13:16;18.90;99.90
46490;DHT22;32204;49.160;8.580;2023-05-27T08:15:42;18.80;99.90
46490;DHT22;32204;49.160;8.580;2023-05-27T08:18:08;18.90;99.90
46490;DHT22;32204;49.160;8.580;2023-05-27T08:20:33;19.00;99.90
46490;DHT22;32204;49.160;8.580;2023-05-27T08:22:59;19.10;99.90
46490;DHT22;32204;49.160;8.580;2023-05-27T08:25:24;19.20;99.90
46490;DHT22;32204;49.160;8.580;2023-05-27T08:27:52;19.20;99.90
46490;DHT22;32204;49.160;8.580;2023-05-27T08:30:18;19.50;99.90
46490;DHT22;32204;49.160;8.580;2023-05-27T08:32:47;19.70;99.90
46490;DHT22;32204;49.160;8.580;2023-05-27T08:35:13;19.50;99.90
46490;DHT22;32204;49.160;8.580;2023-05-27T08:37:39;19.60;99.90
46490;DHT22;32204;49.160;8.580;2023-05-27T08:40:09;19.70;99.90
46490;DHT22;32204;49.160;8.580;2023-05-27T08:42:36;19.80;99.90
46490;DHT22;32204;49.160;8.580;2023-05-27T08:45:02;19.80;99.90
46490;DHT22;32204;49.160;8.580;2023-05-27T08:47:30;19.60;99.90
46490;DHT22;32204;49.160;8.580;2023-05-27T08:49:57;19.60;99.90
46490;DHT22;32204;49.160;8.580;2023-05-27T08:52:27;20.00;99.90
46490;DHT22;32204;49.160;8.580;2023-05-27T08:54:54;20.10;99.90
46490;DHT22;32204;49.160;8.580;2023-05-27T08:57:22;20.00;99.90
46490;DHT22;32204;49.160;8.580;2023-05-27T08:59:51;19.90;99.90
46490;DHT22;32204;49.160;8.580;2023-05-27T09:02:17;20.00;99.90
46490;DHT22;32204;49.160;8.580;2023-05-27T09:04:45;20.40;99.90
46490;DHT22;32204;49.160;8.580;2023-05-27T09:07:11;20.60;99.90
46490;DHT22;32204;49.160;8.580;2023-05-27T09:09:38;20.40;99.90
46490;DHT22;32204;49.160;8.580;2023-05-27T09:12:04;20.30;99.90
46490;DHT22;32204;49.160;8.580;2023-05-27T09:14:31;20.10;99.90
46490;DHT22;32204;49.160;8.580;2023-05-27T09:17:03;20.40;99.90
46490;DHT22;32204;49.160;8.580;2023-05-27T09:19:30;20.90;99.90
46490;DHT22;32204;49.160;8.580;2023-05-27T09:21:55;21.00;99.90
46490;DHT22;32204;49.160;8.580;2023-05-27T09:24:24;20.90;99.90
46490;DHT22;32204;49.160;8.580;2023-05-27T09:26:54;20.90;99.90
46490;DHT22;32204;49.160;8.580;2023-05-27T09:29:23;20.80;99.90
46490;DHT22;32204;49.160;8.580;2023-05-27T09:31:48;21.10;99.90
46490;DHT22;32204;49.160;8.580;2023-05-27T09:34:15;21.20;99.90
46490;DHT22;32204;49.160;8.580;2023-05-27T09:36:45;21.20;99.90
46490;DHT22;32204;49.160;8.580;2023-05-27T09:39:15;21.20;99.90
46490;DHT22;32204;49.160;8.580;2023-05-27T09:41:41;21.30;99.90
46490;DHT22;32204;49.160;8.580;2023-05-27T09:44:08;21.40;99.90
46490;DHT22;32204;49.160;8.580;2023-05-27T09:46:34;21.30;99.90
46490;DHT22;32204;49.160;8.580;2023-05-27T09:49:00;21.40;99.90
46490;DHT22;32204;49.160;8.580;2023-05-27T09:51:26;21.30;99.90
46490;DHT22;32204;49.160;8.580;2023-05-27T09:53:56;21.40;99.90
46490;DHT22;32204;49.160;8.580;2023-05-27T09:56:26;21.40;99.90
46490;DHT22;32204;49.160;8.580;2023-05-27T09:58:55;21.50;99.90
46490;DHT22;32204;49.160;8.580;2023-05-27T10:01:23;21.40;99.90
46490;DHT22;32204;49.160;8.580;2023-05-27T10:03:51;21.60;99.90
46490;DHT22;32204;49.160;8.580;2023-05-27T10:06:17;21.80;99.90
46490;DHT22;32204;49.160;8.580;2023-05-27T10:08:44;21.90;99.90
46490;DHT22;32204;49.160;8.580;2023-05-27T10:11:11;22.00;99.90
46490;DHT22;32204;49.160;8.580;2023-05-27T10:13:37;21.90;99.90
46490;DHT22;32204;49.160;8.580;2023-05-27T10:16:03;22.00;99.90
46490;DHT22;32204;49.160;8.580;2023-05-27T10:18:30;22.00;99.90
46490;DHT22;32204;49.160;8.580;2023-05-27T10:20:59;22.10;99.90
46490;DHT22;32204;49.160;8.580;2023-05-27T10:23:29;22.10;99.90
46490;DHT22;32204;49.160;8.580;2023-05-27T10:26:05;22.20;99.90
46490;DHT22;32204;49.160;8.580;2023-05-27T10:28:36;22.20;99.90
46490;DHT22;32204;49.160;8.580;2023-05-27T10:31:06;22.00;99.90
46490;DHT22;32204;49.160;8.580;2023-05-27T10:33:38;22.20;99.90
46490;DHT22;32204;49.160;8.580;2023-05-27T10:36:08;22.10;99.90
46490;DHT22;32204;49.160;8.580;2023-05-27T10:38:38;22.20;99.90
46490;DHT22;32204;49.160;8.580;2023-05-27T10:41:06;22.20;99.90
46490;DHT22;32204;49.160;8.580;2023-05-27T10:43:32;22.20;99.90
46490;DHT22;32204;49.160;8.580;2023-05-27T10:46:08;22.20;99.90
46490;DHT22;32204;49.160;8.580;2023-05-27T10:48:35;22.40;99.90
46490;DHT22;32204;49.160;8.580;2023-05-27T10:51:02;22.80;99.90
46490;DHT22;32204;49.160;8.580;2023-05-27T10:53:28;22.90;99.90
46490;DHT22;32204;49.160;8.580;2023-05-27T10:55:58;22.70;99.90
46490;DHT22;32204;49.160;8.580;2023-05-27T10:58:24;22.50;99.90
46490;DHT22;32204;49.160;8.580;2023-05-27T11:00:51;22.40;99.90
46490;DHT22;32204;49.160;8.580;2023-05-27T11:05:43;22.90;99.90
46490;DHT22;32204;49.160;8.580;2023-05-27T11:08:12;23.00;99.90
46490;DHT22;32204;49.160;8.580;2023-05-27T11:10:40;23.10;99.90
46490;DHT22;32204;49.160;8.580;2023-05-27T11:13:06;23.30;99.90
46490;DHT22;32204;49.160;8.580;2023-05-27T11:15:32;23.40;99.50
46490;DHT22;32204;49.160;8.580;2023-05-27T11:18:02;23.50;97.90
46490;DHT22;32204;49.160;8.580;2023-05-27T11:20:37;23.30;94.90
46490;DHT22;32204;49.160;8.580;2023-05-27T11:23:03;23.40;95.30
46490;DHT22;32204;49.160;8.580;2023-05-27T11:25:29;23.40;92.30
46490;DHT22;32204;49.160;8.580;2023-05-27T11:28:12;23.40;93.50
46490;DHT22;32204;49.160;8.580;2023-05-27T11:30:38;23.40;94.40
46490;DHT22;32204;49.160;8.580;2023-05-27T11:33:03;23.60;93.10
46490;DHT22;32204;49.160;8.580;2023-05-27T11:35:29;23.80;96.10
46490;DHT22;32204;49.160;8.580;2023-05-27T11:37:55;23.80;91.30
46490;DHT22;32204;49.160;8.580;2023-05-27T11:40:22;23.70;83.60
46490;DHT22;32204;49.160;8.580;2023-05-27T11:42:48;23.60;85.00
46490;DHT22;32204;49.160;8.580;2023-05-27T11:45:19;23.50;80.80
46490;DHT22;32204;49.160;8.580;2023-05-27T11:47:45;23.70;80.90
46490;DHT22;32204;49.160;8.580;2023-05-27T11:50:17;23.80;77.70
46490;DHT22;32204;49.160;8.580;2023-05-27T11:52:57;23.70;70.40
46490;DHT22;32204;49.160;8.580;2023-05-27T11:55:23;23.50;66.00
46490;DHT22;32204;49.160;8.580;2023-05-27T11:57:52;23.60;65.00
46490;DHT22;32204;49.160;8.580;2023-05-27T12:00:36;23.40;63.10
46490;DHT22;32204;49.160;8.580;2023-05-27T12:03:01;23.40;65.80
46490;DHT22;32204;49.160;8.580;2023-05-27T12:05:27;23.50;59.40
46490;DHT22;32204;49.160;8.580;2023-05-27T12:07:52;23.60;59.20
46490;DHT22;32204;49.160;8.580;2023-05-27T12:10:18;23.80;57.10
46490;DHT22;32204;49.160;8.580;2023-05-27T12:12:44;23.80;55.50
46490;DHT22;32204;49.160;8.580;2023-05-27T12:15:10;24.00;54.90
46490;DHT22;32204;49.160;8.580;2023-05-27T12:17:35;24.20;54.80
46490;DHT22;32204;49.160;8.580;2023-05-27T12:20:01;24.20;53.60
46490;DHT22;32204;49.160;8.580;2023-05-27T12:22:26;24.00;51.90
46490;DHT22;32204;49.160;8.580;2023-05-27T12:24:52;24.20;52.10
46490;DHT22;32204;49.160;8.580;2023-05-27T12:27:20;24.20;53.20
46490;DHT22;32204;49.160;8.580;2023-05-27T12:29:55;24.10;55.20
46490;DHT22;32204;49.160;8.580;2023-05-27T12:32:20;24.30;52.70
46490;DHT22;32204;49.160;8.580;2023-05-27T12:34:46;24.00;48.70
46490;DHT22;32204;49.160;8.580;2023-05-27T12:37:12;23.90;48.90
46490;DHT22;32204;49.160;8.580;2023-05-27T12:39:37;24.00;49.10
46490;DHT22;32204;49.160;8.580;2023-05-27T12:42:03;24.20;47.60
46490;DHT22;32204;49.160;8.580;2023-05-27T12:44:30;24.40;48.90
46490;DHT22;32204;49.160;8.580;2023-05-27T12:46:55;24.60;47.90
46490;DHT22;32204;49.160;8.580;2023-05-27T12:49:21;24.60;46.10
46490;DHT22;32204;49.160;8.580;2023-05-27T12:52:01;24.30;44.80
46490;DHT22;32204;49.160;8.580;2023-05-27T12:54:26;24.40;46.70
46490;DHT22;32204;49.160;8.580;2023-05-27T12:56:52;24.20;42.50
46490;DHT22;32204;49.160;8.580;2023-05-27T12:59:18;24.20;44.10
46490;DHT22;32204;49.160;8.580;2023-05-27T13:01:44;24.30;42.70
46490;DHT22;32204;49.160;8.580;2023-05-27T13:04:09;24.30;42.40
46490;DHT22;32204;49.160;8.580;2023-05-27T13:06:35;24.40;42.00
46490;DHT22;32204;49.160;8.580;2023-05-27T13:09:00;24.60;42.20
46490;DHT22;32204;49.160;8.580;2023-05-27T13:11:26;24.60;41.50
46490;DHT22;32204;49.160;8.580;2023-05-27T13:13:52;24.70;41.60
46490;DHT22;32204;49.160;8.580;2023-05-27T13:16:20;24.50;43.80
46490;DHT22;32204;49.160;8.580;2023-05-27T13:18:46;24.50;40.50
46490;DHT22;32204;49.160;8.580;2023-05-27T13:21:12;24.60;38.70
46490;DHT22;32204;49.160;8.580;2023-05-27T13:23:37;24.90;37.70
46490;DHT22;32204;49.160;8.580;2023-05-27T13:26:10;24.80;37.90
46490;DHT22;32204;49.160;8.580;2023-05-27T13:28:39;24.50;36.00
46490;DHT22;32204;49.160;8.580;2023-05-27T13:31:08;24.50;36.10
46490;DHT22;32204;49.160;8.580;2023-05-27T13:33:34;24.60;37.00
46490;DHT22;32204;49.160;8.580;2023-05-27T13:36:00;24.60;34.70
46490;DHT22;32204;49.160;8.580;2023-05-27T13:38:28;24.80;37.50
46490;DHT22;32204;49.160;8.580;2023-05-27T13:40:54;24.90;35.90
46490;DHT22;32204;49.160;8.580;2023-05-27T13:43:20;24.70;35.30
46490;DHT22;32204;49.160;8.580;2023-05-27T13:45:46;24.80;35.40
46490;DHT22;32204;49.160;8.580;2023-05-27T13:48:11;24.80;34.00
46490;DHT22;32204;49.160;8.580;2023-05-27T13:50:37;25.00;35.40
46490;DHT22;32204;49.160;8.580;2023-05-27T13:53:03;25.00;31.20
46490;DHT22;32204;49.160;8.580;2023-05-27T13:55:29;24.90;32.10
46490;DHT22;32204;49.160;8.580;2023-05-27T13:57:55;24.90;29.80
46490;DHT22;32204;49.160;8.580;2023-05-27T14:00:21;25.00;31.10
46490;DHT22;32204;49.160;8.580;2023-05-27T14:02:47;25.10;31.20
46490;DHT22;32204;49.160;8.580;2023-05-27T14:05:13;25.10;29.20
46490;DHT22;32204;49.160;8.580;2023-05-27T14:07:42;25.00;28.50
46490;DHT22;32204;49.160;8.580;2023-05-27T14:10:12;25.00;27.80
46490;DHT22;32204;49.160;8.580;2023-05-27T14:12:38;25.10;28.30
46490;DHT22;32204;49.160;8.580;2023-05-27T14:15:05;25.20;28.70
46490;DHT22;32204;49.160;8.580;2023-05-27T14:17:40;25.30;27.50
46490;DHT22;32204;49.160;8.580;2023-05-27T14:20:06;25.30;36.80
46490;DHT22;32204;49.160;8.580;2023-05-27T14:22:36;25.20;25.00
46490;DHT22;32204;49.160;8.580;2023-05-27T14:25:03;25.30;24.00
46490;DHT22;32204;49.160;8.580;2023-05-27T14:27:29;25.40;24.10
46490;DHT22;32204;49.160;8.580;2023-05-27T14:29:55;25.20;29.80
46490;DHT22;32204;49.160;8.580;2023-05-27T14:32:20;25.10;20.50
46490;DHT22;32204;49.160;8.580;2023-05-27T14:34:46;25.30;20.80
46490;DHT22;32204;49.160;8.580;2023-05-27T14:37:12;25.20;19.70
46490;DHT22;32204;49.160;8.580;2023-05-27T14:39:37;25.20;19.80
46490;DHT22;32204;49.160;8.580;2023-05-27T14:42:03;25.20;20.30
46490;DHT22;32204;49.160;8.580;2023-05-27T14:44:31;25.20;19.60
46490;DHT22;32204;49.160;8.580;2023-05-27T14:46:57;25.40;19.60
46490;DHT22;32204;49.160;8.580;2023-05-27T14:49:23;25.50;19.50
46490;DHT22;32204;49.160;8.580;2023-05-27T14:51:48;25.50;20.30
46490;DHT22;32204;49.160;8.580;2023-05-27T14:54:14;25.60;21.20
46490;DHT22;32204;49.160;8.580;2023-05-27T14:56:39;25.50;18.00
46490;DHT22;32204;49.160;8.580;2023-05-27T14:59:05;25.50;16.10
46490;DHT22;32204;49.160;8.580;2023-05-27T15:01:31;25.30;14.70
46490;DHT22;32204;49.160;8.580;2023-05-27T15:03:57;25.10;11.90
46490;DHT22;32204;49.160;8.580;2023-05-27T15:06:22;25.10;14.40
46490;DHT22;32204;49.160;8.580;2023-05-27T15:08:49;25.20;13.70
46490;DHT22;32204;49.160;8.580;2023-05-27T15:11:15;25.10;13.50
46490;DHT22;32204;49.160;8.580;2023-05-27T15:13:40;25.40;14.00
46490;DHT22;32204;49.160;8.580;2023-05-27T15:16:06;25.40;12.30
46490;DHT22;32204;49.160;8.580;2023-05-27T15:18:32;25.30;13.10
46490;DHT22;32204;49.160;8.580;2023-05-27T15:20:57;25.50;13.00
46490;DHT22;32204;49.160;8.580;2023-05-27T15:23:23;25.60;10.70
46490;DHT22;32204;49.160;8.580;2023-05-27T15:25:48;25.80;11.00
46490;DHT22;32204;49.160;8.580;2023-05-27T15:28:14;25.50;9.60
46490;DHT22;32204;49.160;8.580;2023-05-27T15:30:40;25.40;11.30
46490;DHT22;32204;49.160;8.580;2023-05-27T15:33:06;25.50;10.50